sensor_id;sensor_type;location;lat;lon;timestamp;pressure;altitude;pressure_sealevel;temperature;humidity
50652;BME280;66928;52.086;5.240;2023-02-10T06:26:04;103497.0;;;2.21;83.68
50652;BME280;66928;52.086;5.240;2023-02-10T06:29:17;103497.0;;;2.27;83.7
50652;BME280;66928;52.086;5.240;2023-02-10T06:30:53;103501.0;;;2.23;83.97
50652;BME280;66928;52.086;5.240;2023-02-10T06:32:30;103499.0;;;2.25;84.1
50652;BME280;66928;52.086;5.240;2023-02-10T06:35:45;103508.0;;;2.21;84.33
50652;BME280;66928;52.086;5.240;2023-02-10T06:37:23;103500.0;;;2.32;84.15
50652;BME280;66928;52.086;5.240;2023-02-10T06:39:00;103502.0;;;2.15;84.38
50652;BME280;66928;52.086;5.240;2023-02-10T06:42:12;103501.0;;;2.27;84.55
50652;BME280;66928;52.086;5.240;2023-02-10T06:43:48;103505.0;;;2.35;84.05
50652;BME280;66928;52.086;5.240;2023-02-10T06:45:24;103502.0;;;2.35;84.03
50652;BME280;66928;52.086;5.240;2023-02-10T06:47:01;103506.0;;;2.37;84.03
50652;BME280;66928;52.086;5.240;2023-02-10T06:50:14;103500.0;;;2.31;84.14
50652;BME280;66928;52.086;5.240;2023-02-10T06:51:50;103505.0;;;2.29;84.31
50652;BME280;66928;52.086;5.240;2023-02-10T06:53:26;103501.0;;;2.31;84.25
50652;BME280;66928;52.086;5.240;2023-02-10T06:56:39;103503.0;;;2.25;84.44
50652;BME280;66928;52.086;5.240;2023-02-10T06:58:16;103503.0;;;2.23;84.5
50652;BME280;66928;52.086;5.240;2023-02-10T06:59:53;103513.00000000001;;;2.21;84.58
50652;BME280;66928;52.086;5.240;2023-02-10T07:03:05;103517.0;;;2.23;84.46
50652;BME280;66928;52.086;5.240;2023-02-10T07:04:41;103517.0;;;2.21;84.63
50652;BME280;66928;52.086;5.240;2023-02-10T07:06:18;103511.99999999999;;;2.34;84.21
50652;BME280;66928;52.086;5.240;2023-02-10T07:07:55;103511.99999999999;;;2.31;84.03
50652;BME280;66928;52.086;5.240;2023-02-10T07:11:08;103523.0;;;2.23;84.16
50652;BME280;66928;52.086;5.240;2023-02-10T07:12:44;103519.0;;;2.21;84.22
50652;BME280;66928;52.086;5.240;2023-02-10T07:14:20;103520.0;;;2.25;84.18
50652;BME280;66928;52.086;5.240;2023-02-10T07:17:33;103518.0;;;2.31;84.16
50652;BME280;66928;52.086;5.240;2023-02-10T07:19:09;103519.0;;;2.23;84.29
50652;BME280;66928;52.086;5.240;2023-02-10T07:20:45;103519.0;;;2.33;84.15
50652;BME280;66928;52.086;5.240;2023-02-10T07:23:57;103519.0;;;2.27;83.75
50652;BME280;66928;52.086;5.240;2023-02-10T07:25:33;103517.0;;;2.27;83.25
50652;BME280;66928;52.086;5.240;2023-02-10T07:27:10;103518.0;;;2.29;83.29
50652;BME280;66928;52.086;5.240;2023-02-10T07:30:23;103527.0;;;2.25;83.03
50652;BME280;66928;52.086;5.240;2023-02-10T07:32:00;103522.0;;;2.29;82.89
50652;BME280;66928;52.086;5.240;2023-02-10T07:33:37;103522.0;;;2.35;82.89
50652;BME280;66928;52.086;5.240;2023-02-10T07:35:14;103529.0;;;2.4;82.99
50652;BME280;66928;52.086;5.240;2023-02-10T07:38:30;103541.00000000001;;;2.46;83.13
50652;BME280;66928;52.086;5.240;2023-02-10T07:40:09;103551.0;;;2.42;82.69
50652;BME280;66928;52.086;5.240;2023-02-10T07:41:45;103558.0;;;2.48;82.31
50652;BME280;66928;52.086;5.240;2023-02-10T07:44:57;103556.0;;;2.44;82.45
50652;BME280;66928;52.086;5.240;2023-02-10T07:46:34;103558.0;;;2.54;82.16
50652;BME280;66928;52.086;5.240;2023-02-10T07:48:11;103566.00000000001;;;2.52;81.84
50652;BME280;66928;52.086;5.240;2023-02-10T07:49:47;103553.0;;;2.5;81.86
50652;BME280;66928;52.086;5.240;2023-02-10T07:53:00;103548.0;;;2.48;81.86
50652;BME280;66928;52.086;5.240;2023-02-10T07:54:36;103561.99999999999;;;2.44;81.86
50652;BME280;66928;52.086;5.240;2023-02-10T07:56:13;103567.0;;;2.48;82.17
50652;BME280;66928;52.086;5.240;2023-02-10T07:59:28;103574.0;;;2.56;82.09
50652;BME280;66928;52.086;5.240;2023-02-10T08:01:06;103575.0;;;2.57;81.94
50652;BME280;66928;52.086;5.240;2023-02-10T08:02:43;103570.0;;;2.59;81.91
50652;BME280;66928;52.086;5.240;2023-02-10T08:05:55;103567.0;;;2.58;81.69
50652;BME280;66928;52.086;5.240;2023-02-10T08:07:32;103561.99999999999;;;2.61;81.83
50652;BME280;66928;52.086;5.240;2023-02-10T08:09:08;103555.0;;;2.58;81.52
50652;BME280;66928;52.086;5.240;2023-02-10T08:10:47;103563.00000000001;;;2.57;81.63
50652;BME280;66928;52.086;5.240;2023-02-10T08:14:02;103558.99999999999;;;2.64;81.55
50652;BME280;66928;52.086;5.240;2023-02-10T08:15:38;103568.0;;;2.61;81.55
50652;BME280;66928;52.086;5.240;2023-02-10T08:17:14;103563.00000000001;;;2.59;81.77
50652;BME280;66928;52.086;5.240;2023-02-10T08:20:27;103564.00000000001;;;2.56;82.09
50652;BME280;66928;52.086;5.240;2023-02-10T08:22:03;103556.0;;;2.65;81.72
50652;BME280;66928;52.086;5.240;2023-02-10T08:23:40;103552.0;;;2.64;81.66
50652;BME280;66928;52.086;5.240;2023-02-10T08:25:16;103548.0;;;2.63;81.73
50652;BME280;66928;52.086;5.240;2023-02-10T08:28:29;103549.0;;;2.65;81.8
50652;BME280;66928;52.086;5.240;2023-02-10T08:30:06;103553.0;;;2.66;81.63
50652;BME280;66928;52.086;5.240;2023-02-10T08:31:43;103558.0;;;2.72;81.27
50652;BME280;66928;52.086;5.240;2023-02-10T08:34:55;103558.99999999999;;;2.73;81.27
50652;BME280;66928;52.086;5.240;2023-02-10T08:36:31;103558.99999999999;;;2.77;81.2
50652;BME280;66928;52.086;5.240;2023-02-10T08:38:09;103552.0;;;2.75;81.02
50652;BME280;66928;52.086;5.240;2023-02-10T08:41:21;103557.0;;;2.8;81.06
50652;BME280;66928;52.086;5.240;2023-02-10T08:42:58;103556.0;;;2.8;81.13
50652;BME280;66928;52.086;5.240;2023-02-10T08:44:35;103558.99999999999;;;2.84;80.99
50652;BME280;66928;52.086;5.240;2023-02-10T08:47:48;103566.00000000001;;;2.85;80.83
50652;BME280;66928;52.086;5.240;2023-02-10T08:49:25;103569.0;;;2.84;81.08
50652;BME280;66928;52.086;5.240;2023-02-10T08:51:06;103569.0;;;2.87;80.91
50652;BME280;66928;52.086;5.240;2023-02-10T08:52:43;103567.0;;;2.93;80.63
50652;BME280;66928;52.086;5.240;2023-02-10T08:55:59;103564.00000000001;;;2.84;81.23
50652;BME280;66928;52.086;5.240;2023-02-10T08:57:38;103567.0;;;2.88;81.11
50652;BME280;66928;52.086;5.240;2023-02-10T08:59:16;103570.0;;;3.0;80.97
50652;BME280;66928;52.086;5.240;2023-02-10T09:00:52;103570.0;;;3.05;80.72
50652;BME280;66928;52.086;5.240;2023-02-10T09:04:07;103574.0;;;3.02;81.05
50652;BME280;66928;52.086;5.240;2023-02-10T09:05:45;103574.0;;;2.99;81.27
50652;BME280;66928;52.086;5.240;2023-02-10T09:07:22;103580.0;;;3.14;80.69
50652;BME280;66928;52.086;5.240;2023-02-10T09:10:38;103580.0;;;3.13;80.58
50652;BME280;66928;52.086;5.240;2023-02-10T09:12:14;103580.0;;;3.1;80.99
50652;BME280;66928;52.086;5.240;2023-02-10T09:13:51;103577.0;;;3.17;80.98
50652;BME280;66928;52.086;5.240;2023-02-10T09:17:04;103582.0;;;3.23;80.91
50652;BME280;66928;52.086;5.240;2023-02-10T09:18:41;103580.0;;;3.33;80.77
50652;BME280;66928;52.086;5.240;2023-02-10T09:20:18;103579.0;;;3.22;81.52
50652;BME280;66928;52.086;5.240;2023-02-10T09:21:55;103579.0;;;3.33;81.23
50652;BME280;66928;52.086;5.240;2023-02-10T09:25:08;103579.0;;;3.39;81.05
50652;BME280;66928;52.086;5.240;2023-02-10T09:26:44;103580.0;;;3.46;80.87
50652;BME280;66928;52.086;5.240;2023-02-10T09:28:21;103589.00000000001;;;3.53;80.86
50652;BME280;66928;52.086;5.240;2023-02-10T09:31:35;103589.00000000001;;;3.53;80.91
50652;BME280;66928;52.086;5.240;2023-02-10T09:33:12;103592.0;;;3.55;80.87
50652;BME280;66928;52.086;5.240;2023-02-10T09:34:48;103589.00000000001;;;3.61;80.86
50652;BME280;66928;52.086;5.240;2023-02-10T09:36:24;103592.0;;;3.71;80.49
50652;BME280;66928;52.086;5.240;2023-02-10T09:39:38;103595.0;;;3.72;80.72
50652;BME280;66928;52.086;5.240;2023-02-10T09:41:25;103593.0;;;3.69;80.86
50652;BME280;66928;52.086;5.240;2023-02-10T09:43:18;103595.0;;;3.76;80.77
50652;BME280;66928;52.086;5.240;2023-02-10T09:45:09;103593.0;;;3.76;80.91
50652;BME280;66928;52.086;5.240;2023-02-10T09:49:04;103598.0;;;3.72;80.97
50652;BME280;66928;52.086;5.240;2023-02-10T09:50:57;103594.0;;;3.88;80.77
50652;BME280;66928;52.086;5.240;2023-02-10T09:52:48;103594.0;;;4.0;80.36
50652;BME280;66928;52.086;5.240;2023-02-10T09:54:31;103590.00000000001;;;4.09;80.11
50652;BME280;66928;52.086;5.240;2023-02-10T09:56:14;103595.0;;;4.13;80.19
50652;BME280;66928;52.086;5.240;2023-02-10T09:57:56;103592.0;;;4.28;79.74
50652;BME280;66928;52.086;5.240;2023-02-10T09:59:37;103583.99999999999;;;4.2;79.86
50652;BME280;66928;52.086;5.240;2023-02-10T10:02:58;103582.0;;;4.32;79.74
50652;BME280;66928;52.086;5.240;2023-02-10T10:04:37;103583.0;;;4.24;79.67
50652;BME280;66928;52.086;5.240;2023-02-10T10:06:21;103588.00000000001;;;4.41;79.39
50652;BME280;66928;52.086;5.240;2023-02-10T10:07:58;103586.99999999999;;;4.41;79.33
50652;BME280;66928;52.086;5.240;2023-02-10T10:11:24;103588.00000000001;;;4.28;79.97
50652;BME280;66928;52.086;5.240;2023-02-10T10:13:02;103592.0;;;4.42;79.83
50652;BME280;66928;52.086;5.240;2023-02-10T10:14:40;103592.0;;;4.51;79.36
50652;BME280;66928;52.086;5.240;2023-02-10T10:16:22;103591.00000000001;;;4.45;79.67
50652;BME280;66928;52.086;5.240;2023-02-10T10:20:02;103586.99999999999;;;4.45;79.69
50652;BME280;66928;52.086;5.240;2023-02-10T10:21:51;103592.0;;;4.62;79.16
50652;BME280;66928;52.086;5.240;2023-02-10T10:23:42;103580.0;;;4.57;79.3
50652;BME280;66928;52.086;5.240;2023-02-10T10:28:23;103578.0;;;4.78;78.8
50652;BME280;66928;52.086;5.240;2023-02-10T10:30:07;103572.0;;;4.84;78.37
50652;BME280;66928;52.086;5.240;2023-02-10T10:31:52;103570.0;;;4.83;78.64
50652;BME280;66928;52.086;5.240;2023-02-10T10:33:38;103579.0;;;4.92;78.48
50652;BME280;66928;52.086;5.240;2023-02-10T10:35:18;103578.0;;;4.99;78.41
50652;BME280;66928;52.086;5.240;2023-02-10T10:38:40;103571.0;;;4.99;78.33
50652;BME280;66928;52.086;5.240;2023-02-10T10:40:25;103565.00000000001;;;5.04;78.3
50652;BME280;66928;52.086;5.240;2023-02-10T10:42:17;103558.99999999999;;;5.04;78.19
50652;BME280;66928;52.086;5.240;2023-02-10T10:43:56;103561.99999999999;;;5.07;78.13
50652;BME280;66928;52.086;5.240;2023-02-10T10:45:36;103563.00000000001;;;5.07;78.08
50652;BME280;66928;52.086;5.240;2023-02-10T10:49:01;103567.0;;;5.22;77.67
50652;BME280;66928;52.086;5.240;2023-02-10T10:50:38;103563.00000000001;;;5.25;77.3
50652;BME280;66928;52.086;5.240;2023-02-10T10:52:25;103567.0;;;5.4;76.97
50652;BME280;66928;52.086;5.240;2023-02-10T10:54:03;103572.0;;;5.43;76.98
50652;BME280;66928;52.086;5.240;2023-02-10T10:57:25;103573.0;;;5.53;76.66
50652;BME280;66928;52.086;5.240;2023-02-10T10:59:11;103566.00000000001;;;5.48;76.81
50652;BME280;66928;52.086;5.240;2023-02-10T11:00:50;103559.99999999999;;;5.61;76.27
50652;BME280;66928;52.086;5.240;2023-02-10T11:02:27;103561.99999999999;;;5.67;76.38
50652;BME280;66928;52.086;5.240;2023-02-10T11:05:57;103564.00000000001;;;5.74;75.97
50652;BME280;66928;52.086;5.240;2023-02-10T11:07:35;103567.0;;;5.85;75.45
50652;BME280;66928;52.086;5.240;2023-02-10T11:09:23;103563.00000000001;;;5.88;75.34
50652;BME280;66928;52.086;5.240;2023-02-10T11:11:04;103567.0;;;5.94;75.06
50652;BME280;66928;52.086;5.240;2023-02-10T11:12:45;103571.0;;;6.0;75.03
50652;BME280;66928;52.086;5.240;2023-02-10T11:16:05;103564.00000000001;;;6.09;74.86
50652;BME280;66928;52.086;5.240;2023-02-10T11:17:45;103559.99999999999;;;6.18;74.45
50652;BME280;66928;52.086;5.240;2023-02-10T11:19:26;103550.0;;;6.21;74.41
50652;BME280;66928;52.086;5.240;2023-02-10T11:21:05;103556.0;;;6.23;74.36
50652;BME280;66928;52.086;5.240;2023-02-10T11:24:23;103557.0;;;6.38;73.81
50652;BME280;66928;52.086;5.240;2023-02-10T11:26:02;103555.0;;;6.47;73.42
50652;BME280;66928;52.086;5.240;2023-02-10T11:27:49;103551.0;;;6.43;73.66
50652;BME280;66928;52.086;5.240;2023-02-10T11:29:27;103550.0;;;6.5;73.52
50652;BME280;66928;52.086;5.240;2023-02-10T11:33:06;103546.0;;;6.61;73.52
50652;BME280;66928;52.086;5.240;2023-02-10T11:34:55;103538.00000000001;;;6.63;73.72
50652;BME280;66928;52.086;5.240;2023-02-10T11:36:35;103526.0;;;6.69;73.27
50652;BME280;66928;52.086;5.240;2023-02-10T11:38:19;103532.0;;;6.85;72.69
50652;BME280;66928;52.086;5.240;2023-02-10T11:40:02;103531.0;;;6.87;72.66
50652;BME280;66928;52.086;5.240;2023-02-10T11:43:16;103525.0;;;6.71;72.5
50652;BME280;66928;52.086;5.240;2023-02-10T11:44:56;103524.0;;;6.81;71.92
50652;BME280;66928;52.086;5.240;2023-02-10T11:46:34;103522.0;;;6.88;71.86
50652;BME280;66928;52.086;5.240;2023-02-10T11:49:53;103519.0;;;7.0;71.53
50652;BME280;66928;52.086;5.240;2023-02-10T11:51:30;103522.0;;;7.13;71.08
50652;BME280;66928;52.086;5.240;2023-02-10T11:53:10;103520.0;;;7.3;71.02
50652;BME280;66928;52.086;5.240;2023-02-10T11:54:57;103526.0;;;7.26;70.87
50652;BME280;66928;52.086;5.240;2023-02-10T11:59:20;103522.0;;;7.32;70.14
50652;BME280;66928;52.086;5.240;2023-02-10T12:01:08;103518.0;;;7.26;69.84
50652;BME280;66928;52.086;5.240;2023-02-10T12:03:11;103513.00000000001;;;7.15;69.44
50652;BME280;66928;52.086;5.240;2023-02-10T12:06:30;103506.0;;;7.31;68.99
50652;BME280;66928;52.086;5.240;2023-02-10T12:08:16;103505.0;;;7.37;68.92
50652;BME280;66928;52.086;5.240;2023-02-10T12:10:03;103505.0;;;7.46;68.72
50652;BME280;66928;52.086;5.240;2023-02-10T12:11:50;103506.0;;;7.62;68.59
50652;BME280;66928;52.086;5.240;2023-02-10T12:13:37;103503.0;;;7.81;68.05
50652;BME280;66928;52.086;5.240;2023-02-10T12:17:23;103501.0;;;7.94;67.41
50652;BME280;66928;52.086;5.240;2023-02-10T12:19:12;103500.0;;;7.9;67.58
50652;BME280;66928;52.086;5.240;2023-02-10T12:21:02;103509.99999999999;;;7.71;68.14
50652;BME280;66928;52.086;5.240;2023-02-10T12:23:02;103514.00000000001;;;7.95;67.77
50652;BME280;66928;52.086;5.240;2023-02-10T12:25:52;103511.99999999999;;;7.95;67.94
50652;BME280;66928;52.086;5.240;2023-02-10T12:27:44;103516.00000000001;;;8.09;67.84
50652;BME280;66928;52.086;5.240;2023-02-10T12:29:33;103509.99999999999;;;7.98;67.8
50652;BME280;66928;52.086;5.240;2023-02-10T12:31:23;103517.0;;;8.09;67.94
50652;BME280;66928;52.086;5.240;2023-02-10T12:33:16;103509.99999999999;;;7.99;68.03
50652;BME280;66928;52.086;5.240;2023-02-10T12:35:22;103507.0;;;8.15;67.99
50652;BME280;66928;52.086;5.240;2023-02-10T12:37:11;103506.0;;;8.01;67.47
50652;BME280;66928;52.086;5.240;2023-02-10T12:39:06;103503.0;;;8.13;66.77
50652;BME280;66928;52.086;5.240;2023-02-10T12:40:53;103496.0;;;8.19;65.69
50652;BME280;66928;52.086;5.240;2023-02-10T12:42:44;103486.99999999999;;;8.06;65.63
50652;BME280;66928;52.086;5.240;2023-02-10T12:46:25;103486.99999999999;;;8.0;65.74
50652;BME280;66928;52.086;5.240;2023-02-10T12:48:18;103486.99999999999;;;8.03;65.8
50652;BME280;66928;52.086;5.240;2023-02-10T12:50:08;103491.00000000001;;;8.15;65.52
50652;BME280;66928;52.086;5.240;2023-02-10T12:52:02;103492.0;;;8.18;65.27
50652;BME280;66928;52.086;5.240;2023-02-10T12:53:44;103493.0;;;8.02;65.86
50652;BME280;66928;52.086;5.240;2023-02-10T12:55:27;103497.0;;;7.81;65.91
50652;BME280;66928;52.086;5.240;2023-02-10T12:58:53;103494.0;;;8.14;64.94
50652;BME280;66928;52.086;5.240;2023-02-10T13:00:36;103484.99999999999;;;8.17;64.33
50652;BME280;66928;52.086;5.240;2023-02-10T13:02:17;103490.00000000001;;;8.27;64.52
50652;BME280;66928;52.086;5.240;2023-02-10T13:03:58;103484.99999999999;;;8.17;64.22
50652;BME280;66928;52.086;5.240;2023-02-10T13:05:46;103482.0;;;8.27;64.19
50652;BME280;66928;52.086;5.240;2023-02-10T13:09:17;103476.0;;;8.48;63.52
50652;BME280;66928;52.086;5.240;2023-02-10T13:11:00;103489.00000000001;;;8.35;63.41
50652;BME280;66928;52.086;5.240;2023-02-10T13:12:44;103490.00000000001;;;8.23;63.92
50652;BME280;66928;52.086;5.240;2023-02-10T13:14:24;103483.99999999999;;;8.25;63.99
50652;BME280;66928;52.086;5.240;2023-02-10T13:16:06;103476.0;;;8.38;63.95
50652;BME280;66928;52.086;5.240;2023-02-10T13:19:33;103475.0;;;8.13;64.63
50652;BME280;66928;52.086;5.240;2023-02-10T13:21:19;103458.99999999999;;;8.25;64.87
50652;BME280;66928;52.086;5.240;2023-02-10T13:23:06;103457.0;;;8.45;64.38
50652;BME280;66928;52.086;5.240;2023-02-10T13:24:56;103453.0;;;8.44;64.52
50652;BME280;66928;52.086;5.240;2023-02-10T13:26:47;103446.0;;;8.31;65.03
50652;BME280;66928;52.086;5.240;2023-02-10T13:30:42;103440.00000000001;;;8.51;64.73
50652;BME280;66928;52.086;5.240;2023-02-10T13:32:34;103436.99999999999;;;8.69;64.84
50652;BME280;66928;52.086;5.240;2023-02-10T13:34:30;103441.00000000001;;;8.58;65.16
50652;BME280;66928;52.086;5.240;2023-02-10T13:36:13;103432.0;;;8.33;66.34
50652;BME280;66928;52.086;5.240;2023-02-10T13:37:55;103427.0;;;8.42;66.03
50652;BME280;66928;52.086;5.240;2023-02-10T13:39:33;103427.0;;;8.41;66.64
50652;BME280;66928;52.086;5.240;2023-02-10T13:41:49;103432.0;;;8.43;66.97
50652;BME280;66928;52.086;5.240;2023-02-10T13:43:29;103426.0;;;8.44;66.99
50652;BME280;66928;52.086;5.240;2023-02-10T13:46:58;103419.0;;;8.6;66.77
50652;BME280;66928;52.086;5.240;2023-02-10T13:48:52;103423.0;;;8.73;66.59
50652;BME280;66928;52.086;5.240;2023-02-10T13:50:32;103417.0;;;8.45;67.75
50652;BME280;66928;52.086;5.240;2023-02-10T13:52:20;103411.99999999999;;;8.66;67.38
50652;BME280;66928;52.086;5.240;2023-02-10T13:53:58;103401.0;;;8.85;66.86
50652;BME280;66928;52.086;5.240;2023-02-10T13:57:30;103396.0;;;8.9;66.98
50652;BME280;66928;52.086;5.240;2023-02-10T13:59:24;103393.0;;;8.94;67.12
50652;BME280;66928;52.086;5.240;2023-02-10T14:01:30;103398.0;;;8.81;67.45
50652;BME280;66928;52.086;5.240;2023-02-10T14:03:20;103406.0;;;8.98;67.91
50652;BME280;66928;52.086;5.240;2023-02-10T14:04:58;103400.0;;;9.03;67.94
50652;BME280;66928;52.086;5.240;2023-02-10T14:06:37;103401.0;;;8.91;68.5
50652;BME280;66928;52.086;5.240;2023-02-10T14:10:07;103400.0;;;8.9;68.77
50652;BME280;66928;52.086;5.240;2023-02-10T14:12:25;103399.0;;;8.92;68.8
50652;BME280;66928;52.086;5.240;2023-02-10T14:14:04;103397.0;;;8.78;69.61
50652;BME280;66928;52.086;5.240;2023-02-10T14:15:56;103400.0;;;8.78;69.39
50652;BME280;66928;52.086;5.240;2023-02-10T14:17:36;103398.0;;;8.89;69.17
50652;BME280;66928;52.086;5.240;2023-02-10T14:19:22;103395.0;;;8.81;69.48
50652;BME280;66928;52.086;5.240;2023-02-10T14:21:06;103391.00000000001;;;8.78;70.19
50652;BME280;66928;52.086;5.240;2023-02-10T14:24:28;103378.0;;;9.01;69.33
50652;BME280;66928;52.086;5.240;2023-02-10T14:26:11;103374.0;;;8.86;70.16
50652;BME280;66928;52.086;5.240;2023-02-10T14:27:55;103373.0;;;8.97;70.11
50652;BME280;66928;52.086;5.240;2023-02-10T14:29:34;103372.0;;;9.03;69.56
50652;BME280;66928;52.086;5.240;2023-02-10T14:32:54;103368.0;;;9.05;68.88
50652;BME280;66928;52.086;5.240;2023-02-10T14:34:32;103365.00000000001;;;9.1;68.95
50652;BME280;66928;52.086;5.240;2023-02-10T14:36:16;103363.00000000001;;;9.19;68.87
50652;BME280;66928;52.086;5.240;2023-02-10T14:37:55;103367.0;;;9.35;68.77
50652;BME280;66928;52.086;5.240;2023-02-10T14:41:10;103370.0;;;9.44;68.49
50652;BME280;66928;52.086;5.240;2023-02-10T14:42:46;103371.0;;;9.64;67.97
50652;BME280;66928;52.086;5.240;2023-02-10T14:44:28;103375.0;;;9.56;67.64
50652;BME280;66928;52.086;5.240;2023-02-10T14:46:18;103372.0;;;9.47;67.86
50652;BME280;66928;52.086;5.240;2023-02-10T14:49:36;103373.0;;;9.47;67.62
50652;BME280;66928;52.086;5.240;2023-02-10T14:51:19;103374.0;;;9.31;68.33
50652;BME280;66928;52.086;5.240;2023-02-10T14:52:58;103368.0;;;9.35;68.06
50652;BME280;66928;52.086;5.240;2023-02-10T14:54:37;103358.99999999999;;;9.26;68.09
50652;BME280;66928;52.086;5.240;2023-02-10T14:57:57;103365.00000000001;;;9.43;67.63
50652;BME280;66928;52.086;5.240;2023-02-10T14:59:39;103371.0;;;9.49;67.39
50652;BME280;66928;52.086;5.240;2023-02-10T15:01:22;103363.00000000001;;;9.28;67.61
50652;BME280;66928;52.086;5.240;2023-02-10T15:03:00;103357.0;;;9.33;67.33
50652;BME280;66928;52.086;5.240;2023-02-10T15:06:20;103357.0;;;9.16;67.3
50652;BME280;66928;52.086;5.240;2023-02-10T15:07:59;103368.0;;;8.93;67.52
50652;BME280;66928;52.086;5.240;2023-02-10T15:09:38;103378.0;;;9.06;67.27
50652;BME280;66928;52.086;5.240;2023-02-10T15:11:18;103372.0;;;8.89;67.97
50652;BME280;66928;52.086;5.240;2023-02-10T15:14:39;103370.0;;;8.78;68.08
50652;BME280;66928;52.086;5.240;2023-02-10T15:16:21;103361.99999999999;;;8.81;68.2
50652;BME280;66928;52.086;5.240;2023-02-10T15:18:02;103349.0;;;8.67;68.47
50652;BME280;66928;52.086;5.240;2023-02-10T15:19:53;103348.0;;;8.66;68.58
50652;BME280;66928;52.086;5.240;2023-02-10T15:23:13;103358.99999999999;;;8.77;68.38
50652;BME280;66928;52.086;5.240;2023-02-10T15:26:29;103369.0;;;8.82;68.39
50652;BME280;66928;52.086;5.240;2023-02-10T15:28:25;103370.0;;;8.84;68.44
50652;BME280;66928;52.086;5.240;2023-02-10T15:30:18;103372.0;;;8.9;68.05
50652;BME280;66928;52.086;5.240;2023-02-10T15:33:37;103377.0;;;8.98;67.94
50652;BME280;66928;52.086;5.240;2023-02-10T15:35:16;103373.0;;;8.93;67.94
50652;BME280;66928;52.086;5.240;2023-02-10T15:36:56;103375.0;;;8.78;68.66
50652;BME280;66928;52.086;5.240;2023-02-10T15:38:34;103376.0;;;8.72;68.72
50652;BME280;66928;52.086;5.240;2023-02-10T15:42:02;103376.0;;;8.71;69.05
50652;BME280;66928;52.086;5.240;2023-02-10T15:43:47;103373.0;;;8.6;69.69
50652;BME280;66928;52.086;5.240;2023-02-10T15:45:24;103371.0;;;8.73;69.22
50652;BME280;66928;52.086;5.240;2023-02-10T15:47:41;103375.0;;;8.67;69.5
50652;BME280;66928;52.086;5.240;2023-02-10T15:49:20;103376.0;;;8.72;69.45
50652;BME280;66928;52.086;5.240;2023-02-10T15:50:57;103374.0;;;8.73;69.55
50652;BME280;66928;52.086;5.240;2023-02-10T15:54:18;103372.0;;;8.61;70.14
50652;BME280;66928;52.086;5.240;2023-02-10T15:55:56;103379.0;;;8.67;70.06
50652;BME280;66928;52.086;5.240;2023-02-10T15:57:32;103382.0;;;8.68;70.2
50652;BME280;66928;52.086;5.240;2023-02-10T16:00:52;103374.0;;;8.84;69.58
50652;BME280;66928;52.086;5.240;2023-02-10T16:02:29;103372.0;;;8.78;69.72
50652;BME280;66928;52.086;5.240;2023-02-10T16:04:05;103375.0;;;8.6;70.69
50652;BME280;66928;52.086;5.240;2023-02-10T16:05:41;103372.0;;;8.67;70.61
50652;BME280;66928;52.086;5.240;2023-02-10T16:08:58;103371.0;;;8.71;70.56
50652;BME280;66928;52.086;5.240;2023-02-10T16:10:34;103372.0;;;8.57;71.0
50652;BME280;66928;52.086;5.240;2023-02-10T16:12:11;103371.0;;;8.65;70.89
50652;BME280;66928;52.086;5.240;2023-02-10T16:15:26;103372.0;;;8.73;70.77
50652;BME280;66928;52.086;5.240;2023-02-10T16:17:05;103368.0;;;8.74;70.92
50652;BME280;66928;52.086;5.240;2023-02-10T16:18:42;103370.0;;;8.73;70.94
50652;BME280;66928;52.086;5.240;2023-02-10T16:20:22;103369.0;;;8.76;71.06
50652;BME280;66928;52.086;5.240;2023-02-10T16:23:35;103364.00000000001;;;8.64;71.62
50652;BME280;66928;52.086;5.240;2023-02-10T16:25:12;103361.99999999999;;;8.8;71.11
50652;BME280;66928;52.086;5.240;2023-02-10T16:26:49;103361.99999999999;;;8.67;71.45
50652;BME280;66928;52.086;5.240;2023-02-10T16:30:04;103367.0;;;8.74;71.36
50652;BME280;66928;52.086;5.240;2023-02-10T16:31:41;103358.99999999999;;;8.81;71.2
50652;BME280;66928;52.086;5.240;2023-02-10T16:33:17;103358.0;;;8.83;71.3
50652;BME280;66928;52.086;5.240;2023-02-10T16:34:54;103358.0;;;8.81;71.55
50652;BME280;66928;52.086;5.240;2023-02-10T16:38:06;103353.0;;;8.64;72.34
50652;BME280;66928;52.086;5.240;2023-02-10T16:39:44;103351.0;;;8.59;72.69
50652;BME280;66928;52.086;5.240;2023-02-10T16:41:22;103350.0;;;8.5;73.16
50652;BME280;66928;52.086;5.240;2023-02-10T16:44:35;103334.99999999999;;;8.75;72.39
50652;BME280;66928;52.086;5.240;2023-02-10T16:46:14;103336.99999999999;;;8.88;72.12
50652;BME280;66928;52.086;5.240;2023-02-10T16:47:51;103328.0;;;8.88;72.33
50652;BME280;66928;52.086;5.240;2023-02-10T16:49:28;103327.0;;;8.66;73.08
50652;BME280;66928;52.086;5.240;2023-02-10T16:52:40;103334.99999999999;;;8.67;73.09
50652;BME280;66928;52.086;5.240;2023-02-10T16:54:17;103347.0;;;8.63;73.19
50652;BME280;66928;52.086;5.240;2023-02-10T16:55:54;103347.0;;;8.6;73.42
50652;BME280;66928;52.086;5.240;2023-02-10T16:59:09;103355.0;;;8.71;73.44
50652;BME280;66928;52.086;5.240;2023-02-10T17:00:47;103352.0;;;8.67;73.49
50652;BME280;66928;52.086;5.240;2023-02-10T17:02:23;103347.0;;;8.74;73.27
50652;BME280;66928;52.086;5.240;2023-02-10T17:05:38;103347.0;;;8.74;73.16
50652;BME280;66928;52.086;5.240;2023-02-10T17:07:15;103350.0;;;8.73;73.23
50652;BME280;66928;52.086;5.240;2023-02-10T17:08:52;103346.0;;;8.73;73.06
50652;BME280;66928;52.086;5.240;2023-02-10T17:10:30;103355.0;;;8.81;72.66
50652;BME280;66928;52.086;5.240;2023-02-10T17:13:43;103359.99999999999;;;8.71;73.08
50652;BME280;66928;52.086;5.240;2023-02-10T17:15:20;103356.0;;;8.57;73.86
50652;BME280;66928;52.086;5.240;2023-02-10T17:16:57;103355.0;;;8.67;73.58
50652;BME280;66928;52.086;5.240;2023-02-10T17:20:16;103361.99999999999;;;8.66;73.58
50652;BME280;66928;52.086;5.240;2023-02-10T17:21:54;103358.0;;;8.69;73.33
50652;BME280;66928;52.086;5.240;2023-02-10T17:23:30;103355.0;;;8.69;73.41